sensor_id;sensor_type;location;lat;lon;timestamp;P1;durP1;ratioP1;P2;durP2;ratioP2
74267;SDS011;62638;51.362;12.472;2023-02-13T00:01:06;13.40;;;5.60;;
74267;SDS011;62638;51.362;12.472;2023-02-13T00:03:32;14.65;;;4.38;;
74267;SDS011;62638;51.362;12.472;2023-02-13T00:05:57;9.93;;;5.25;;
74267;SDS011;62638;51.362;12.472;2023-02-13T00:08:22;13.23;;;5.03;;
74267;SDS011;62638;51.362;12.472;2023-02-13T00:10:48;15.70;;;6.00;;
74267;SDS011;62638;51.362;12.472;2023-02-13T00:13:13;10.85;;;4.60;;
74267;SDS011;62638;51.362;12.472;2023-02-13T00:15:38;9.18;;;4.75;;
74267;SDS011;62638;51.362;12.472;2023-02-13T00:18:04;11.83;;;4.17;;
74267;SDS011;62638;51.362;12.472;2023-02-13T00:20:29;11.77;;;5.22;;
74267;SDS011;62638;51.362;12.472;2023-02-13T00:22:54;11.20;;;5.43;;
74267;SDS011;62638;51.362;12.472;2023-02-13T00:25:20;15.70;;;4.65;;
74267;SDS011;62638;51.362;12.472;2023-02-13T00:27:45;14.33;;;6.27;;
74267;SDS011;62638;51.362;12.472;2023-02-13T00:30:11;9.15;;;3.63;;
74267;SDS011;62638;51.362;12.472;2023-02-13T00:32:36;10.05;;;4.07;;
74267;SDS011;62638;51.362;12.472;2023-02-13T00:35:01;10.90;;;4.77;;
74267;SDS011;62638;51.362;12.472;2023-02-13T00:37:27;13.25;;;5.65;;
74267;SDS011;62638;51.362;12.472;2023-02-13T00:39:52;12.23;;;4.73;;
74267;SDS011;62638;51.362;12.472;2023-02-13T00:42:18;9.57;;;4.63;;
74267;SDS011;62638;51.362;12.472;2023-02-13T00:44:47;13.35;;;5.20;;
74267;SDS011;62638;51.362;12.472;2023-02-13T00:47:13;17.47;;;6.27;;
74267;SDS011;62638;51.362;12.472;2023-02-13T00:49:38;13.18;;;4.03;;
74267;SDS011;62638;51.362;12.472;2023-02-13T00:52:04;13.07;;;4.57;;
74267;SDS011;62638;51.362;12.472;2023-02-13T00:54:29;10.60;;;5.17;;
74267;SDS011;62638;51.362;12.472;2023-02-13T00:56:54;17.13;;;5.27;;
74267;SDS011;62638;51.362;12.472;2023-02-13T00:59:19;14.63;;;5.33;;
74267;SDS011;62638;51.362;12.472;2023-02-13T01:01:45;12.83;;;4.90;;
74267;SDS011;62638;51.362;12.472;2023-02-13T01:04:10;15.83;;;5.77;;
74267;SDS011;62638;51.362;12.472;2023-02-13T01:06:35;14.13;;;5.83;;
74267;SDS011;62638;51.362;12.472;2023-02-13T01:09:01;11.03;;;5.00;;
74267;SDS011;62638;51.362;12.472;2023-02-13T01:11:28;13.43;;;5.18;;
74267;SDS011;62638;51.362;12.472;2023-02-13T01:13:53;10.43;;;4.77;;
74267;SDS011;62638;51.362;12.472;2023-02-13T01:16:18;13.40;;;4.87;;
74267;SDS011;62638;51.362;12.472;2023-02-13T01:18:43;16.52;;;6.15;;
74267;SDS011;62638;51.362;12.472;2023-02-13T01:21:13;13.40;;;4.15;;
74267;SDS011;62638;51.362;12.472;2023-02-13T01:23:41;15.77;;;5.38;;
74267;SDS011;62638;51.362;12.472;2023-02-13T01:26:07;14.90;;;5.10;;
74267;SDS011;62638;51.362;12.472;2023-02-13T01:28:34;13.70;;;6.30;;
74267;SDS011;62638;51.362;12.472;2023-02-13T01:31:00;16.07;;;5.07;;
74267;SDS011;62638;51.362;12.472;2023-02-13T01:33:26;10.48;;;4.75;;
74267;SDS011;62638;51.362;12.472;2023-02-13T01:35:52;14.25;;;4.78;;
74267;SDS011;62638;51.362;12.472;2023-02-13T01:38:17;13.80;;;4.32;;
74267;SDS011;62638;51.362;12.472;2023-02-13T01:40:44;16.40;;;6.07;;
74267;SDS011;62638;51.362;12.472;2023-02-13T01:43:11;15.68;;;5.30;;
74267;SDS011;62638;51.362;12.472;2023-02-13T01:45:36;10.68;;;4.45;;
74267;SDS011;62638;51.362;12.472;2023-02-13T01:48:03;12.93;;;4.93;;
74267;SDS011;62638;51.362;12.472;2023-02-13T01:50:50;12.30;;;4.22;;
74267;SDS011;62638;51.362;12.472;2023-02-13T01:53:31;11.90;;;5.10;;
74267;SDS011;62638;51.362;12.472;2023-02-13T01:56:02;17.80;;;4.90;;
74267;SDS011;62638;51.362;12.472;2023-02-13T01:58:33;11.63;;;4.68;;
74267;SDS011;62638;51.362;12.472;2023-02-13T02:01:01;11.27;;;4.97;;
74267;SDS011;62638;51.362;12.472;2023-02-13T02:03:35;12.77;;;5.32;;
74267;SDS011;62638;51.362;12.472;2023-02-13T02:06:03;14.35;;;5.13;;
74267;SDS011;62638;51.362;12.472;2023-02-13T02:08:31;11.57;;;5.53;;
74267;SDS011;62638;51.362;12.472;2023-02-13T02:10:59;16.95;;;5.20;;
74267;SDS011;62638;51.362;12.472;2023-02-13T02:13:32;13.52;;;5.15;;
74267;SDS011;62638;51.362;12.472;2023-02-13T02:15:57;13.97;;;5.37;;
74267;SDS011;62638;51.362;12.472;2023-02-13T02:18:22;15.13;;;5.07;;
74267;SDS011;62638;51.362;12.472;2023-02-13T02:34:55;12.38;;;4.63;;
74267;SDS011;62638;51.362;12.472;2023-02-13T02:40:33;13.50;;;4.07;;
74267;SDS011;62638;51.362;12.472;2023-02-13T02:43:42;16.92;;;5.75;;
74267;SDS011;62638;51.362;12.472;2023-02-13T02:46:16;10.43;;;4.45;;
74267;SDS011;62638;51.362;12.472;2023-02-13T02:48:50;6.53;;;3.90;;
74267;SDS011;62638;51.362;12.472;2023-02-13T02:51:47;12.13;;;4.35;;
74267;SDS011;62638;51.362;12.472;2023-02-13T02:54:20;12.77;;;4.78;;
74267;SDS011;62638;51.362;12.472;2023-02-13T02:57:26;8.88;;;4.53;;
74267;SDS011;62638;51.362;12.472;2023-02-13T03:00:14;13.70;;;5.88;;
74267;SDS011;62638;51.362;12.472;2023-02-13T03:03:00;14.55;;;5.07;;
74267;SDS011;62638;51.362;12.472;2023-02-13T03:05:44;14.73;;;4.80;;
74267;SDS011;62638;51.362;12.472;2023-02-13T03:08:30;12.63;;;5.45;;
74267;SDS011;62638;51.362;12.472;2023-02-13T03:11:15;15.18;;;5.80;;
74267;SDS011;62638;51.362;12.472;2023-02-13T03:13:59;12.82;;;4.75;;
74267;SDS011;62638;51.362;12.472;2023-02-13T03:22:39;14.15;;;4.57;;
74267;SDS011;62638;51.362;12.472;2023-02-13T03:34:16;9.00;;;4.30;;
74267;SDS011;62638;51.362;12.472;2023-02-13T03:39:59;6.68;;;2.97;;
74267;SDS011;62638;51.362;12.472;2023-02-13T03:42:20;10.98;;;3.97;;
74267;SDS011;62638;51.362;12.472;2023-02-13T03:44:52;7.60;;;2.45;;
74267;SDS011;62638;51.362;12.472;2023-02-13T03:47:40;9.15;;;3.90;;
74267;SDS011;62638;51.362;12.472;2023-02-13T03:50:07;8.15;;;3.47;;
74267;SDS011;62638;51.362;12.472;2023-02-13T03:52:36;8.10;;;2.80;;
74267;SDS011;62638;51.362;12.472;2023-02-13T03:55:08;9.73;;;3.30;;
74267;SDS011;62638;51.362;12.472;2023-02-13T03:57:56;7.00;;;2.72;;
74267;SDS011;62638;51.362;12.472;2023-02-13T04:00:43;12.82;;;4.10;;
74267;SDS011;62638;51.362;12.472;2023-02-13T04:08:20;10.68;;;3.67;;
74267;SDS011;62638;51.362;12.472;2023-02-13T04:10:49;6.77;;;3.17;;
74267;SDS011;62638;51.362;12.472;2023-02-13T04:13:32;4.75;;;1.90;;
74267;SDS011;62638;51.362;12.472;2023-02-13T04:16:05;7.43;;;2.92;;
74267;SDS011;62638;51.362;12.472;2023-02-13T04:19:01;8.13;;;2.90;;
74267;SDS011;62638;51.362;12.472;2023-02-13T04:21:31;6.97;;;2.33;;
74267;SDS011;62638;51.362;12.472;2023-02-13T04:23:57;8.05;;;2.67;;
74267;SDS011;62638;51.362;12.472;2023-02-13T04:26:23;10.55;;;2.90;;
74267;SDS011;62638;51.362;12.472;2023-02-13T04:28:49;10.10;;;2.45;;
74267;SDS011;62638;51.362;12.472;2023-02-13T04:31:15;10.97;;;4.03;;
74267;SDS011;62638;51.362;12.472;2023-02-13T04:33:40;9.43;;;2.83;;
74267;SDS011;62638;51.362;12.472;2023-02-13T04:36:05;4.90;;;2.67;;
74267;SDS011;62638;51.362;12.472;2023-02-13T04:38:31;7.57;;;2.80;;
74267;SDS011;62638;51.362;12.472;2023-02-13T04:40:56;7.22;;;3.03;;
74267;SDS011;62638;51.362;12.472;2023-02-13T04:43:21;8.50;;;3.17;;
74267;SDS011;62638;51.362;12.472;2023-02-13T04:45:47;8.07;;;2.90;;
74267;SDS011;62638;51.362;12.472;2023-02-13T04:48:13;5.40;;;3.05;;
74267;SDS011;62638;51.362;12.472;2023-02-13T04:50:39;4.80;;;2.53;;
74267;SDS011;62638;51.362;12.472;2023-02-13T04:53:04;10.07;;;2.50;;
74267;SDS011;62638;51.362;12.472;2023-02-13T04:55:29;3.10;;;1.47;;
74267;SDS011;62638;51.362;12.472;2023-02-13T04:57:55;7.70;;;2.27;;
74267;SDS011;62638;51.362;12.472;2023-02-13T05:00:21;12.27;;;2.40;;
74267;SDS011;62638;51.362;12.472;2023-02-13T05:02:47;3.05;;;1.98;;
74267;SDS011;62638;51.362;12.472;2023-02-13T05:05:12;9.07;;;2.80;;
74267;SDS011;62638;51.362;12.472;2023-02-13T05:07:38;5.45;;;1.55;;
74267;SDS011;62638;51.362;12.472;2023-02-13T05:10:03;6.30;;;2.53;;
74267;SDS011;62638;51.362;12.472;2023-02-13T05:12:29;6.68;;;2.40;;
74267;SDS011;62638;51.362;12.472;2023-02-13T05:14:54;5.73;;;2.83;;
74267;SDS011;62638;51.362;12.472;2023-02-13T05:17:19;7.23;;;2.87;;
74267;SDS011;62638;51.362;12.472;2023-02-13T05:19:45;7.90;;;2.87;;
74267;SDS011;62638;51.362;12.472;2023-02-13T05:22:10;6.83;;;2.00;;
74267;SDS011;62638;51.362;12.472;2023-02-13T05:24:53;8.65;;;3.33;;
74267;SDS011;62638;51.362;12.472;2023-02-13T05:27:19;7.13;;;2.50;;
74267;SDS011;62638;51.362;12.472;2023-02-13T05:29:44;8.00;;;4.13;;
74267;SDS011;62638;51.362;12.472;2023-02-13T05:32:09;10.93;;;2.67;;
74267;SDS011;62638;51.362;12.472;2023-02-13T05:34:34;4.20;;;2.00;;
74267;SDS011;62638;51.362;12.472;2023-02-13T05:37:00;8.13;;;2.70;;
74267;SDS011;62638;51.362;12.472;2023-02-13T05:39:25;4.00;;;2.00;;
74267;SDS011;62638;51.362;12.472;2023-02-13T05:41:50;10.57;;;3.03;;
74267;SDS011;62638;51.362;12.472;2023-02-13T05:44:16;6.28;;;2.20;;
74267;SDS011;62638;51.362;12.472;2023-02-13T05:46:41;4.78;;;1.90;;
74267;SDS011;62638;51.362;12.472;2023-02-13T05:49:08;4.40;;;2.05;;
74267;SDS011;62638;51.362;12.472;2023-02-13T05:51:35;5.18;;;1.48;;
74267;SDS011;62638;51.362;12.472;2023-02-13T05:54:00;6.72;;;2.15;;
74267;SDS011;62638;51.362;12.472;2023-02-13T05:56:26;7.30;;;3.20;;
74267;SDS011;62638;51.362;12.472;2023-02-13T05:58:52;4.67;;;1.80;;
74267;SDS011;62638;51.362;12.472;2023-02-13T06:01:18;5.45;;;2.17;;
74267;SDS011;62638;51.362;12.472;2023-02-13T06:03:43;5.72;;;2.35;;
74267;SDS011;62638;51.362;12.472;2023-02-13T06:06:08;5.03;;;1.63;;
74267;SDS011;62638;51.362;12.472;2023-02-13T06:08:33;7.70;;;2.35;;
74267;SDS011;62638;51.362;12.472;2023-02-13T06:10:59;4.00;;;2.23;;
74267;SDS011;62638;51.362;12.472;2023-02-13T06:13:24;5.40;;;2.63;;
74267;SDS011;62638;51.362;12.472;2023-02-13T06:15:49;5.93;;;2.05;;
74267;SDS011;62638;51.362;12.472;2023-02-13T06:18:15;6.77;;;1.50;;
74267;SDS011;62638;51.362;12.472;2023-02-13T06:20:41;4.22;;;1.90;;
74267;SDS011;62638;51.362;12.472;2023-02-13T06:23:06;5.43;;;2.03;;
74267;SDS011;62638;51.362;12.472;2023-02-13T06:25:33;5.47;;;2.30;;
74267;SDS011;62638;51.362;12.472;2023-02-13T06:30:25;6.63;;;1.73;;
74267;SDS011;62638;51.362;12.472;2023-02-13T06:32:50;4.95;;;2.63;;
74267;SDS011;62638;51.362;12.472;2023-02-13T06:35:15;6.50;;;2.33;;
74267;SDS011;62638;51.362;12.472;2023-02-13T06:37:41;5.97;;;2.80;;
74267;SDS011;62638;51.362;12.472;2023-02-13T06:40:09;8.65;;;2.97;;
74267;SDS011;62638;51.362;12.472;2023-02-13T06:42:35;7.13;;;2.10;;
74267;SDS011;62638;51.362;12.472;2023-02-13T06:45:01;5.60;;;2.10;;
74267;SDS011;62638;51.362;12.472;2023-02-13T06:47:27;8.73;;;2.83;;
74267;SDS011;62638;51.362;12.472;2023-02-13T06:49:53;6.47;;;2.03;;
74267;SDS011;62638;51.362;12.472;2023-02-13T06:52:18;5.83;;;2.50;;
74267;SDS011;62638;51.362;12.472;2023-02-13T06:54:44;6.40;;;2.72;;
74267;SDS011;62638;51.362;12.472;2023-02-13T06:57:09;5.73;;;2.03;;
74267;SDS011;62638;51.362;12.472;2023-02-13T06:59:34;7.03;;;2.47;;
74267;SDS011;62638;51.362;12.472;2023-02-13T07:01:59;6.78;;;2.35;;
74267;SDS011;62638;51.362;12.472;2023-02-13T07:04:26;6.97;;;2.57;;
74267;SDS011;62638;51.362;12.472;2023-02-13T07:06:53;7.05;;;2.90;;
74267;SDS011;62638;51.362;12.472;2023-02-13T07:09:19;8.45;;;2.65;;
74267;SDS011;62638;51.362;12.472;2023-02-13T07:11:44;8.83;;;3.40;;
74267;SDS011;62638;51.362;12.472;2023-02-13T07:14:09;2.77;;;1.60;;
74267;SDS011;62638;51.362;12.472;2023-02-13T07:16:34;8.20;;;2.90;;
74267;SDS011;62638;51.362;12.472;2023-02-13T07:19:00;6.13;;;2.87;;
74267;SDS011;62638;51.362;12.472;2023-02-13T07:21:25;5.65;;;2.50;;
74267;SDS011;62638;51.362;12.472;2023-02-13T07:23:51;5.93;;;2.43;;
74267;SDS011;62638;51.362;12.472;2023-02-13T07:26:16;7.32;;;2.67;;
74267;SDS011;62638;51.362;12.472;2023-02-13T07:28:41;6.57;;;2.10;;
74267;SDS011;62638;51.362;12.472;2023-02-13T07:31:16;3.05;;;1.92;;
74267;SDS011;62638;51.362;12.472;2023-02-13T07:33:41;6.53;;;2.20;;
74267;SDS011;62638;51.362;12.472;2023-02-13T07:36:06;5.47;;;2.07;;
74267;SDS011;62638;51.362;12.472;2023-02-13T07:38:32;5.88;;;2.20;;
74267;SDS011;62638;51.362;12.472;2023-02-13T07:41:01;5.35;;;1.98;;
74267;SDS011;62638;51.362;12.472;2023-02-13T07:43:27;3.92;;;1.90;;
74267;SDS011;62638;51.362;12.472;2023-02-13T07:45:55;5.70;;;2.72;;
74267;SDS011;62638;51.362;12.472;2023-02-13T07:48:23;5.45;;;2.42;;
74267;SDS011;62638;51.362;12.472;2023-02-13T07:50:52;8.38;;;2.25;;
74267;SDS011;62638;51.362;12.472;2023-02-13T07:53:18;7.47;;;2.95;;
74267;SDS011;62638;51.362;12.472;2023-02-13T07:55:43;5.45;;;3.30;;
74267;SDS011;62638;51.362;12.472;2023-02-13T07:58:09;3.83;;;1.63;;
74267;SDS011;62638;51.362;12.472;2023-02-13T08:00:34;4.00;;;1.60;;
74267;SDS011;62638;51.362;12.472;2023-02-13T08:03:00;7.97;;;2.35;;
74267;SDS011;62638;51.362;12.472;2023-02-13T08:05:26;4.70;;;2.15;;
74267;SDS011;62638;51.362;12.472;2023-02-13T08:07:52;5.30;;;2.17;;
74267;SDS011;62638;51.362;12.472;2023-02-13T08:10:17;5.38;;;2.28;;
74267;SDS011;62638;51.362;12.472;2023-02-13T08:13:02;3.70;;;1.42;;
74267;SDS011;62638;51.362;12.472;2023-02-13T08:15:28;3.72;;;1.70;;
74267;SDS011;62638;51.362;12.472;2023-02-13T08:17:53;5.72;;;2.13;;
74267;SDS011;62638;51.362;12.472;2023-02-13T08:20:18;3.47;;;2.07;;
74267;SDS011;62638;51.362;12.472;2023-02-13T08:22:44;4.72;;;2.17;;
74267;SDS011;62638;51.362;12.472;2023-02-13T08:25:09;2.80;;;1.63;;
74267;SDS011;62638;51.362;12.472;2023-02-13T08:27:34;2.73;;;1.70;;
74267;SDS011;62638;51.362;12.472;2023-02-13T08:29:59;4.47;;;2.27;;
74267;SDS011;62638;51.362;12.472;2023-02-13T08:32:25;4.78;;;2.40;;
74267;SDS011;62638;51.362;12.472;2023-02-13T08:34:51;7.80;;;2.95;;
74267;SDS011;62638;51.362;12.472;2023-02-13T08:37:16;5.90;;;2.13;;
74267;SDS011;62638;51.362;12.472;2023-02-13T08:39:42;4.43;;;1.60;;
74267;SDS011;62638;51.362;12.472;2023-02-13T08:42:07;3.23;;;1.90;;
74267;SDS011;62638;51.362;12.472;2023-02-13T08:44:33;4.75;;;1.98;;
74267;SDS011;62638;51.362;12.472;2023-02-13T08:46:58;7.40;;;1.92;;
74267;SDS011;62638;51.362;12.472;2023-02-13T08:49:27;3.88;;;1.55;;
74267;SDS011;62638;51.362;12.472;2023-02-13T08:51:53;4.68;;;1.98;;
74267;SDS011;62638;51.362;12.472;2023-02-13T08:54:18;4.50;;;1.97;;
74267;SDS011;62638;51.362;12.472;2023-02-13T08:56:44;4.07;;;1.67;;
74267;SDS011;62638;51.362;12.472;2023-02-13T08:59:09;4.53;;;1.42;;
74267;SDS011;62638;51.362;12.472;2023-02-13T09:01:34;5.28;;;2.00;;
74267;SDS011;62638;51.362;12.472;2023-02-13T09:04:00;8.17;;;2.33;;
74267;SDS011;62638;51.362;12.472;2023-02-13T09:06:25;3.03;;;1.70;;
74267;SDS011;62638;51.362;12.472;2023-02-13T09:08:51;4.05;;;1.95;;
74267;SDS011;62638;51.362;12.472;2023-02-13T09:11:17;4.13;;;2.40;;
74267;SDS011;62638;51.362;12.472;2023-02-13T09:13:43;4.82;;;2.58;;
74267;SDS011;62638;51.362;12.472;2023-02-13T09:16:09;6.80;;;2.72;;
74267;SDS011;62638;51.362;12.472;2023-02-13T09:18:35;5.88;;;1.67;;
74267;SDS011;62638;51.362;12.472;2023-02-13T09:21:04;5.18;;;2.28;;
74267;SDS011;62638;51.362;12.472;2023-02-13T09:23:32;3.97;;;1.85;;
74267;SDS011;62638;51.362;12.472;2023-02-13T09:25:59;5.00;;;2.13;;
74267;SDS011;62638;51.362;12.472;2023-02-13T09:28:30;3.42;;;1.98;;
74267;SDS011;62638;51.362;12.472;2023-02-13T09:30:57;7.05;;;3.15;;
74267;SDS011;62638;51.362;12.472;2023-02-13T09:33:23;5.75;;;2.42;;
74267;SDS011;62638;51.362;12.472;2023-02-13T09:35:48;5.30;;;2.33;;
74267;SDS011;62638;51.362;12.472;2023-02-13T09:38:14;3.90;;;2.57;;
74267;SDS011;62638;51.362;12.472;2023-02-13T09:40:47;6.05;;;2.40;;
74267;SDS011;62638;51.362;12.472;2023-02-13T09:43:20;9.80;;;3.35;;
74267;SDS011;62638;51.362;12.472;2023-02-13T09:45:54;6.25;;;2.92;;
74267;SDS011;62638;51.362;12.472;2023-02-13T09:48:29;5.82;;;2.33;;
74267;SDS011;62638;51.362;12.472;2023-02-13T09:51:00;4.22;;;2.22;;
74267;SDS011;62638;51.362;12.472;2023-02-13T09:53:26;5.30;;;3.08;;
74267;SDS011;62638;51.362;12.472;2023-02-13T09:55:56;5.95;;;2.38;;
74267;SDS011;62638;51.362;12.472;2023-02-13T10:07:09;5.97;;;2.83;;
74267;SDS011;62638;51.362;12.472;2023-02-13T10:20:46;7.03;;;2.33;;
74267;SDS011;62638;51.362;12.472;2023-02-13T10:26:06;7.13;;;2.95;;
74267;SDS011;62638;51.362;12.472;2023-02-13T10:28:37;6.30;;;3.35;;
74267;SDS011;62638;51.362;12.472;2023-02-13T10:31:52;11.07;;;3.65;;
74267;SDS011;62638;51.362;12.472;2023-02-13T10:34:21;6.03;;;2.72;;
74267;SDS011;62638;51.362;12.472;2023-02-13T10:36:49;6.18;;;2.67;;
74267;SDS011;62638;51.362;12.472;2023-02-13T10:39:27;6.03;;;2.85;;
74267;SDS011;62638;51.362;12.472;2023-02-13T10:41:59;6.53;;;2.60;;
74267;SDS011;62638;51.362;12.472;2023-02-13T10:50:24;9.18;;;3.75;;
74267;SDS011;62638;51.362;12.472;2023-02-13T10:53:01;6.97;;;2.70;;
74267;SDS011;62638;51.362;12.472;2023-02-13T10:56:00;7.32;;;2.58;;
74267;SDS011;62638;51.362;12.472;2023-02-13T10:58:39;6.55;;;2.65;;
74267;SDS011;62638;51.362;12.472;2023-02-13T11:01:31;5.85;;;2.28;;
74267;SDS011;62638;51.362;12.472;2023-02-13T11:04:15;3.75;;;1.95;;
74267;SDS011;62638;51.362;12.472;2023-02-13T11:06:54;7.57;;;2.53;;
74267;SDS011;62638;51.362;12.472;2023-02-13T11:09:24;3.88;;;1.75;;
74267;SDS011;62638;51.362;12.472;2023-02-13T11:11:50;2.88;;;1.75;;
74267;SDS011;62638;51.362;12.472;2023-02-13T11:14:20;3.33;;;1.95;;
74267;SDS011;62638;51.362;12.472;2023-02-13T11:16:48;5.07;;;2.55;;
74267;SDS011;62638;51.362;12.472;2023-02-13T11:19:36;4.82;;;1.70;;
74267;SDS011;62638;51.362;12.472;2023-02-13T11:22:26;2.53;;;1.40;;
74267;SDS011;62638;51.362;12.472;2023-02-13T11:24:58;3.10;;;1.70;;
74267;SDS011;62638;51.362;12.472;2023-02-13T11:27:27;3.58;;;1.63;;
74267;SDS011;62638;51.362;12.472;2023-02-13T11:29:57;2.38;;;1.50;;
74267;SDS011;62638;51.362;12.472;2023-02-13T11:32:30;2.78;;;1.58;;
74267;SDS011;62638;51.362;12.472;2023-02-13T11:34:58;2.47;;;1.52;;
74267;SDS011;62638;51.362;12.472;2023-02-13T11:37:49;2.30;;;1.15;;
74267;SDS011;62638;51.362;12.472;2023-02-13T11:41:02;3.85;;;1.40;;
74267;SDS011;62638;51.362;12.472;2023-02-13T11:43:46;2.70;;;1.15;;
74267;SDS011;62638;51.362;12.472;2023-02-13T11:51:40;2.47;;;1.42;;
74267;SDS011;62638;51.362;12.472;2023-02-13T11:54:25;3.47;;;1.33;;
74267;SDS011;62638;51.362;12.472;2023-02-13T11:56:53;6.55;;;0.95;;
74267;SDS011;62638;51.362;12.472;2023-02-13T11:59:21;5.30;;;2.35;;
74267;SDS011;62638;51.362;12.472;2023-02-13T12:02:00;2.63;;;1.60;;
74267;SDS011;62638;51.362;12.472;2023-02-13T12:04:41;4.30;;;1.80;;
74267;SDS011;62638;51.362;12.472;2023-02-13T12:07:20;5.30;;;2.25;;
74267;SDS011;62638;51.362;12.472;2023-02-13T12:09:47;3.97;;;2.00;;
74267;SDS011;62638;51.362;12.472;2023-02-13T12:12:18;4.40;;;1.02;;
74267;SDS011;62638;51.362;12.472;2023-02-13T12:17:18;5.60;;;1.50;;
74267;SDS011;62638;51.362;12.472;2023-02-13T12:19:47;3.17;;;1.20;;
74267;SDS011;62638;51.362;12.472;2023-02-13T12:36:00;6.15;;;1.75;;
74267;SDS011;62638;51.362;12.472;2023-02-13T12:49:51;2.55;;;1.50;;
74267;SDS011;62638;51.362;12.472;2023-02-13T12:55:20;3.38;;;1.77;;
74267;SDS011;62638;51.362;12.472;2023-02-13T13:01:10;4.20;;;1.38;;
74267;SDS011;62638;51.362;12.472;2023-02-13T13:09:37;3.42;;;2.20;;
74267;SDS011;62638;51.362;12.472;2023-02-13T13:12:32;4.82;;;1.90;;
74267;SDS011;62638;51.362;12.472;2023-02-13T13:23:10;2.92;;;1.50;;
74267;SDS011;62638;51.362;12.472;2023-02-13T13:25:56;3.17;;;1.88;;
74267;SDS011;62638;51.362;12.472;2023-02-13T13:28:34;3.75;;;1.38;;
74267;SDS011;62638;51.362;12.472;2023-02-13T13:31:04;3.67;;;1.90;;
74267;SDS011;62638;51.362;12.472;2023-02-13T13:33:30;3.40;;;1.80;;
74267;SDS011;62638;51.362;12.472;2023-02-13T13:38:50;3.17;;;1.42;;
74267;SDS011;62638;51.362;12.472;2023-02-13T13:41:26;3.65;;;1.50;;
74267;SDS011;62638;51.362;12.472;2023-02-13T13:43:57;2.58;;;1.55;;
74267;SDS011;62638;51.362;12.472;2023-02-13T13:54:35;2.63;;;1.27;;
74267;SDS011;62638;51.362;12.472;2023-02-13T14:07:25;3.40;;;1.98;;
74267;SDS011;62638;51.362;12.472;2023-02-13T14:09:50;2.33;;;1.55;;
74267;SDS011;62638;51.362;12.472;2023-02-13T14:14:53;3.90;;;1.63;;
74267;SDS011;62638;51.362;12.472;2023-02-13T14:23:22;4.38;;;3.05;;
74267;SDS011;62638;51.362;12.472;2023-02-13T14:34:07;5.13;;;2.20;;
74267;SDS011;62638;51.362;12.472;2023-02-13T14:36:44;7.28;;;2.63;;
74267;SDS011;62638;51.362;12.472;2023-02-13T14:44:24;5.60;;;2.40;;
74267;SDS011;62638;51.362;12.472;2023-02-13T14:47:13;4.45;;;2.15;;
74267;SDS011;62638;51.362;12.472;2023-02-13T14:49:59;4.35;;;2.25;;
74267;SDS011;62638;51.362;12.472;2023-02-13T14:52:36;5.78;;;2.72;;
74267;SDS011;62638;51.362;12.472;2023-02-13T14:57:38;4.28;;;3.15;;
74267;SDS011;62638;51.362;12.472;2023-02-13T15:00:23;4.65;;;2.85;;
74267;SDS011;62638;51.362;12.472;2023-02-13T15:02:57;6.25;;;2.42;;
74267;SDS011;62638;51.362;12.472;2023-02-13T15:05:30;6.75;;;2.80;;
74267;SDS011;62638;51.362;12.472;2023-02-13T15:08:05;5.32;;;3.03;;
74267;SDS011;62638;51.362;12.472;2023-02-13T15:13:23;6.97;;;3.35;;
74267;SDS011;62638;51.362;12.472;2023-02-13T15:16:05;6.38;;;2.63;;
74267;SDS011;62638;51.362;12.472;2023-02-13T15:18:35;6.10;;;3.13;;
74267;SDS011;62638;51.362;12.472;2023-02-13T15:21:15;6.55;;;2.40;;
74267;SDS011;62638;51.362;12.472;2023-02-13T15:23:43;6.13;;;2.83;;
74267;SDS011;62638;51.362;12.472;2023-02-13T15:26:23;8.50;;;2.55;;
74267;SDS011;62638;51.362;12.472;2023-02-13T15:29:01;5.28;;;2.47;;
74267;SDS011;62638;51.362;12.472;2023-02-13T15:31:30;7.07;;;3.05;;
74267;SDS011;62638;51.362;12.472;2023-02-13T15:34:02;6.28;;;3.33;;
74267;SDS011;62638;51.362;12.472;2023-02-13T15:36:33;5.75;;;2.83;;
74267;SDS011;62638;51.362;12.472;2023-02-13T15:39:04;4.75;;;2.45;;
74267;SDS011;62638;51.362;12.472;2023-02-13T15:41:33;5.30;;;2.63;;
74267;SDS011;62638;51.362;12.472;2023-02-13T15:44:01;6.47;;;2.78;;
74267;SDS011;62638;51.362;12.472;2023-02-13T15:46:31;6.13;;;2.72;;
74267;SDS011;62638;51.362;12.472;2023-02-13T15:49:05;7.10;;;3.90;;
74267;SDS011;62638;51.362;12.472;2023-02-13T15:51:34;9.38;;;3.33;;
74267;SDS011;62638;51.362;12.472;2023-02-13T15:54:01;7.82;;;2.83;;
74267;SDS011;62638;51.362;12.472;2023-02-13T15:56:31;4.70;;;2.55;;
74267;SDS011;62638;51.362;12.472;2023-02-13T15:58:57;4.85;;;2.42;;
74267;SDS011;62638;51.362;12.472;2023-02-13T16:01:25;4.80;;;2.13;;
74267;SDS011;62638;51.362;12.472;2023-02-13T16:03:55;5.53;;;2.55;;
74267;SDS011;62638;51.362;12.472;2023-02-13T16:06:27;5.10;;;2.15;;
74267;SDS011;62638;51.362;12.472;2023-02-13T16:08:57;5.30;;;2.72;;
74267;SDS011;62638;51.362;12.472;2023-02-13T16:11:33;7.20;;;2.72;;
74267;SDS011;62638;51.362;12.472;2023-02-13T16:14:20;6.05;;;2.92;;
74267;SDS011;62638;51.362;12.472;2023-02-13T16:17:01;4.57;;;2.45;;
74267;SDS011;62638;51.362;12.472;2023-02-13T16:19:33;6.22;;;2.50;;
74267;SDS011;62638;51.362;12.472;2023-02-13T16:22:04;9.02;;;3.13;;
74267;SDS011;62638;51.362;12.472;2023-02-13T16:24:38;7.03;;;2.80;;
74267;SDS011;62638;51.362;12.472;2023-02-13T16:27:09;6.40;;;2.65;;
74267;SDS011;62638;51.362;12.472;2023-02-13T16:29:38;7.65;;;2.70;;
74267;SDS011;62638;51.362;12.472;2023-02-13T16:32:16;10.85;;;3.75;;
74267;SDS011;62638;51.362;12.472;2023-02-13T16:34:48;10.18;;;3.10;;
74267;SDS011;62638;51.362;12.472;2023-02-13T16:37:28;15.70;;;3.00;;
74267;SDS011;62638;51.362;12.472;2023-02-13T16:39:56;7.68;;;3.97;;
74267;SDS011;62638;51.362;12.472;2023-02-13T16:42:21;8.90;;;2.60;;
74267;SDS011;62638;51.362;12.472;2023-02-13T16:44:48;5.13;;;2.33;;
74267;SDS011;62638;51.362;12.472;2023-02-13T16:47:21;9.65;;;3.17;;
74267;SDS011;62638;51.362;12.472;2023-02-13T16:49:50;8.85;;;3.47;;
74267;SDS011;62638;51.362;12.472;2023-02-13T16:52:20;10.10;;;3.88;;
74267;SDS011;62638;51.362;12.472;2023-02-13T17:07:27;10.07;;;3.05;;
74267;SDS011;62638;51.362;12.472;2023-02-13T17:09:59;9.02;;;2.97;;
74267;SDS011;62638;51.362;12.472;2023-02-13T17:12:26;5.18;;;3.00;;
74267;SDS011;62638;51.362;12.472;2023-02-13T17:14:53;4.80;;;2.55;;
74267;SDS011;62638;51.362;12.472;2023-02-13T17:17:20;7.45;;;3.25;;
74267;SDS011;62638;51.362;12.472;2023-02-13T17:19:46;6.68;;;3.30;;
74267;SDS011;62638;51.362;12.472;2023-02-13T17:22:20;8.40;;;3.85;;
74267;SDS011;62638;51.362;12.472;2023-02-13T17:24:50;14.65;;;5.07;;
74267;SDS011;62638;51.362;12.472;2023-02-13T17:27:15;5.55;;;3.00;;
74267;SDS011;62638;51.362;12.472;2023-02-13T17:29:40;6.97;;;3.65;;
74267;SDS011;62638;51.362;12.472;2023-02-13T17:32:07;7.03;;;3.10;;
74267;SDS011;62638;51.362;12.472;2023-02-13T17:34:38;6.82;;;3.70;;
74267;SDS011;62638;51.362;12.472;2023-02-13T17:37:04;6.80;;;3.60;;
74267;SDS011;62638;51.362;12.472;2023-02-13T17:39:37;6.57;;;2.85;;
74267;SDS011;62638;51.362;12.472;2023-02-13T17:42:04;6.05;;;3.30;;
74267;SDS011;62638;51.362;12.472;2023-02-13T17:44:29;13.15;;;7.53;;
74267;SDS011;62638;51.362;12.472;2023-02-13T17:46:55;7.40;;;4.40;;
74267;SDS011;62638;51.362;12.472;2023-02-13T17:49:20;6.17;;;3.70;;
74267;SDS011;62638;51.362;12.472;2023-02-13T17:51:45;8.80;;;4.23;;
74267;SDS011;62638;51.362;12.472;2023-02-13T17:54:10;6.43;;;3.20;;